Time;durP1;ratioP1;P1;durP2;ratioP2;P2;SDS_P1;SDS_P2;PMS_P1;PMS_P2;Temp;Humidity;BMP_temperature;BMP_pressure;BME280_temperature;BME280_humidity;BME280_pressure;Samples;Min_cycle;Max_cycle;Signal;HPM_P1;HPM_P2
2024/01/21 00:00:42;;;;;;;83.25;26.30;;;;;;;;;;7372437;19;20414;-74
2024/01/21 00:03:08;;;;;;;85.50;28.30;;;;;;;;;;7370780;19;20379;-74
2024/01/21 00:05:33;;;;;;;100.90;28.20;;;;;;;;;;7371881;19;20010;-74
2024/01/21 00:07:59;;;;;;;79.18;25.13;;;;;;;;;;7370690;19;20003;-74
2024/01/21 00:10:24;;;;;;;100.45;28.38;;;;;;;;;;7393969;19;20474;-74
2024/01/21 00:12:49;;;;;;;88.32;27.35;;;;;;;;;;7370921;19;19999;-74
2024/01/21 00:15:15;;;;;;;97.95;27.67;;;;;;;;;;7371342;19;20033;-75
2024/01/21 00:17:40;;;;;;;100.32;28.58;;;;;;;;;;7372433;19;20975;-74
2024/01/21 00:20:06;;;;;;;85.00;28.52;;;;;;;;;;7371510;19;20010;-74
2024/01/21 00:22:31;;;;;;;91.57;28.48;;;;;;;;;;7393323;19;20006;-74
2024/01/21 00:24:57;;;;;;;93.85;28.23;;;;;;;;;;7375976;19;20411;-75
2024/01/21 00:27:22;;;;;;;88.30;26.00;;;;;;;;;;7371399;19;20010;-73
2024/01/21 00:29:47;;;;;;;93.13;27.27;;;;;;;;;;7378322;19;20018;-75
2024/01/21 00:32:13;;;;;;;85.18;27.25;;;;;;;;;;7379365;19;20100;-75
2024/01/21 00:34:38;;;;;;;87.25;25.92;;;;;;;;;;7397299;19;20002;-73
2024/01/21 00:37:03;;;;;;;85.15;28.08;;;;;;;;;;7373222;19;20002;-75
2024/01/21 00:39:29;;;;;;;93.85;26.95;;;;;;;;;;7370834;19;19999;-76
2024/01/21 00:41:55;;;;;;;91.00;28.98;;;;;;;;;;7370426;19;20027;-76
2024/01/21 00:44:20;;;;;;;90.00;30.05;;;;;;;;;;7365073;19;20037;-75
2024/01/21 00:46:47;;;;;;;91.30;27.52;;;;;;;;;;7371432;19;20010;-76
2024/01/21 00:49:13;;;;;;;90.05;27.60;;;;;;;;;;7391451;19;20106;-75
2024/01/21 00:51:38;;;;;;;86.13;27.40;;;;;;;;;;7369337;19;20011;-75
2024/01/21 00:54:03;;;;;;;81.55;27.13;;;;;;;;;;7370176;19;20010;-75
2024/01/21 00:56:29;;;;;;;100.95;29.20;;;;;;;;;;7370496;19;20009;-74
2024/01/21 00:58:54;;;;;;;92.05;27.83;;;;;;;;;;7370040;19;20070;-75
2024/01/21 01:01:19;;;;;;;95.70;25.08;;;;;;;;;;7391177;19;20394;-74
2024/01/21 01:03:45;;;;;;;91.32;28.50;;;;;;;;;;7368029;19;19994;-74
2024/01/21 01:06:10;;;;;;;91.00;28.90;;;;;;;;;;7370530;19;20488;-74
2024/01/21 01:08:35;;;;;;;92.85;27.35;;;;;;;;;;7370313;19;20797;-74
2024/01/21 01:11:01;;;;;;;99.68;30.92;;;;;;;;;;7375327;19;20467;-74
2024/01/21 01:13:27;;;;;;;82.40;26.63;;;;;;;;;;7393618;19;19999;-74
2024/01/21 01:15:52;;;;;;;94.85;26.70;;;;;;;;;;7370397;19;20010;-75
2024/01/21 01:18:17;;;;;;;76.88;25.38;;;;;;;;;;7368443;19;20014;-73
2024/01/21 01:20:43;;;;;;;84.07;26.40;;;;;;;;;;7369976;19;20010;-74
2024/01/21 01:23:08;;;;;;;86.72;27.83;;;;;;;;;;7375515;19;20006;-74
2024/01/21 01:25:33;;;;;;;82.53;27.10;;;;;;;;;;7393781;19;20510;-74
2024/01/21 01:27:59;;;;;;;79.35;25.75;;;;;;;;;;7369265;19;20002;-74
2024/01/21 01:30:24;;;;;;;92.68;26.67;;;;;;;;;;7369496;19;20110;-74
2024/01/21 01:32:49;;;;;;;73.30;23.10;;;;;;;;;;7369796;19;20030;-73
2024/01/21 01:35:15;;;;;;;91.55;26.85;;;;;;;;;;7368007;19;20010;-73
2024/01/21 01:37:40;;;;;;;68.43;22.80;;;;;;;;;;7381572;19;20478;-73
2024/01/21 01:40:06;;;;;;;78.38;24.60;;;;;;;;;;7382458;19;20007;-73
2024/01/21 01:42:32;;;;;;;81.97;26.23;;;;;;;;;;7372336;19;20522;-73
2024/01/21 01:44:58;;;;;;;77.40;25.95;;;;;;;;;;7371566;19;20003;-74
2024/01/21 01:47:23;;;;;;;85.97;27.73;;;;;;;;;;7368198;19;20009;-74
2024/01/21 01:49:49;;;;;;;86.07;25.70;;;;;;;;;;7371077;19;19995;-75
2024/01/21 01:52:15;;;;;;;80.22;26.40;;;;;;;;;;7392958;19;20468;-74
2024/01/21 01:54:44;;;;;;;80.20;27.63;;;;;;;;;;7370102;19;20010;-74
2024/01/21 01:57:10;;;;;;;75.25;25.38;;;;;;;;;;7366605;19;20018;-74
2024/01/21 01:59:36;;;;;;;88.00;28.05;;;;;;;;;;7372596;19;20002;-75
2024/01/21 02:02:02;;;;;;;83.28;26.05;;;;;;;;;;7377727;19;20023;-76
2024/01/21 02:04:28;;;;;;;90.47;27.00;;;;;;;;;;7398280;19;20006;-73
2024/01/21 02:06:53;;;;;;;77.60;25.75;;;;;;;;;;7375535;19;20019;-74
2024/01/21 02:09:19;;;;;;;78.88;27.17;;;;;;;;;;7375009;19;20006;-74
2024/01/21 02:11:44;;;;;;;84.57;25.95;;;;;;;;;;7374031;19;20363;-74
2024/01/21 02:14:10;;;;;;;82.53;27.13;;;;;;;;;;7373941;19;20080;-74
2024/01/21 02:16:35;;;;;;;80.97;26.08;;;;;;;;;;7396439;19;20031;-75
2024/01/21 02:19:06;;;;;;;81.88;25.80;;;;;;;;;;7372381;19;20045;-74
2024/01/21 02:21:31;;;;;;;77.63;24.85;;;;;;;;;;7372881;19;20037;-74
2024/01/21 02:23:57;;;;;;;74.28;24.05;;;;;;;;;;7372028;19;20010;-74
2024/01/21 02:26:22;;;;;;;69.20;23.45;;;;;;;;;;7372290;19;20010;-74
2024/01/21 02:28:47;;;;;;;74.35;25.05;;;;;;;;;;7372565;19;20038;-74
2024/01/21 02:31:15;;;;;;;79.72;25.60;;;;;;;;;;7396018;19;20003;-74
2024/01/21 02:33:41;;;;;;;77.78;24.35;;;;;;;;;;7369918;19;19998;-74
2024/01/21 02:36:07;;;;;;;71.25;24.60;;;;;;;;;;7370728;19;20713;-74
2024/01/21 02:38:33;;;;;;;75.38;25.55;;;;;;;;;;7371696;19;20015;-74
2024/01/21 02:40:58;;;;;;;83.38;24.05;;;;;;;;;;7370768;19;20322;-74
2024/01/21 02:43:23;;;;;;;81.35;25.25;;;;;;;;;;7388931;19;20830;-74
2024/01/21 02:45:49;;;;;;;61.45;23.83;;;;;;;;;;7369773;19;20508;-74
2024/01/21 02:48:14;;;;;;;63.47;23.67;;;;;;;;;;7367590;19;20516;-74
2024/01/21 02:50:40;;;;;;;77.47;24.38;;;;;;;;;;7369549;19;20006;-74
2024/01/21 02:53:05;;;;;;;73.10;24.90;;;;;;;;;;7367319;19;20021;-74
2024/01/21 02:55:31;;;;;;;74.55;25.98;;;;;;;;;;7388790;19;20006;-74
2024/01/21 02:57:57;;;;;;;72.95;24.83;;;;;;;;;;7366288;19;19998;-74
2024/01/21 03:00:22;;;;;;;64.35;24.33;;;;;;;;;;7367904;19;20017;-74
2024/01/21 03:02:49;;;;;;;69.20;22.95;;;;;;;;;;7367357;19;20006;-74
2024/01/21 03:05:15;;;;;;;67.72;22.95;;;;;;;;;;7366817;19;20484;-74
2024/01/21 03:07:40;;;;;;;66.25;22.08;;;;;;;;;;7379769;19;20021;-74
2024/01/21 03:10:06;;;;;;;73.28;24.60;;;;;;;;;;7375228;19;20015;-74
2024/01/21 03:12:31;;;;;;;62.58;23.08;;;;;;;;;;7365697;19;20073;-74
2024/01/21 03:14:57;;;;;;;66.70;23.45;;;;;;;;;;7364183;19;20002;-74
2024/01/21 03:17:22;;;;;;;69.03;24.20;;;;;;;;;;7363050;19;20014;-74
2024/01/21 03:19:47;;;;;;;65.00;23.73;;;;;;;;;;7363692;19;20402;-74
2024/01/21 03:22:13;;;;;;;67.30;23.00;;;;;;;;;;7385684;19;20488;-74
2024/01/21 03:24:38;;;;;;;76.45;23.52;;;;;;;;;;7364789;19;20011;-74
2024/01/21 03:27:03;;;;;;;65.13;21.98;;;;;;;;;;7365272;19;20467;-74
2024/01/21 03:29:29;;;;;;;64.35;23.80;;;;;;;;;;7361748;19;20488;-74
2024/01/21 03:31:54;;;;;;;62.80;23.00;;;;;;;;;;7364535;19;20044;-74
2024/01/21 03:34:19;;;;;;;60.00;23.17;;;;;;;;;;7385749;19;20027;-74
2024/01/21 03:36:45;;;;;;;62.72;22.67;;;;;;;;;;7364873;19;20019;-75
2024/01/21 03:39:10;;;;;;;62.72;22.70;;;;;;;;;;7365206;19;20093;-74
2024/01/21 03:41:35;;;;;;;64.53;23.10;;;;;;;;;;7363858;19;20033;-74
2024/01/21 03:44:01;;;;;;;63.53;23.10;;;;;;;;;;7362710;19;22313;-74
2024/01/21 03:46:26;;;;;;;63.15;22.17;;;;;;;;;;7386870;19;20491;-74
2024/01/21 03:48:51;;;;;;;69.68;22.95;;;;;;;;;;7363689;19;20026;-74
2024/01/21 03:51:17;;;;;;;65.15;22.92;;;;;;;;;;7364934;19;20059;-74
2024/01/21 03:53:42;;;;;;;58.42;22.10;;;;;;;;;;7364504;19;20015;-74
2024/01/21 03:56:08;;;;;;;58.72;22.55;;;;;;;;;;7369132;19;20022;-74
2024/01/21 03:58:33;;;;;;;63.78;22.75;;;;;;;;;;7393009;19;20010;-74
2024/01/21 04:00:59;;;;;;;61.40;23.38;;;;;;;;;;7369204;19;20039;-74
2024/01/21 04:03:25;;;;;;;63.38;23.02;;;;;;;;;;7363819;19;20643;-74
2024/01/21 04:05:50;;;;;;;64.45;23.17;;;;;;;;;;7365132;19;20007;-74
2024/01/21 04:08:15;;;;;;;75.82;23.65;;;;;;;;;;7364788;19;20014;-74
2024/01/21 04:10:41;;;;;;;69.20;23.42;;;;;;;;;;7375391;19;20007;-74
2024/01/21 04:13:06;;;;;;;74.68;24.58;;;;;;;;;;7378691;19;20109;-74
2024/01/21 04:15:31;;;;;;;68.72;22.55;;;;;;;;;;7364577;19;20513;-74
2024/01/21 04:17:57;;;;;;;67.18;22.70;;;;;;;;;;7362319;19;20168;-74
2024/01/21 04:20:22;;;;;;;69.05;22.58;;;;;;;;;;7367602;19;20010;-74
2024/01/21 04:22:47;;;;;;;65.45;24.65;;;;;;;;;;7372248;19;20010;-74
2024/01/21 04:25:13;;;;;;;74.10;25.65;;;;;;;;;;7393117;19;20009;-74
2024/01/21 04:27:38;;;;;;;73.45;26.20;;;;;;;;;;7369779;19;20006;-74
2024/01/21 04:30:04;;;;;;;82.18;26.98;;;;;;;;;;7371579;19;20015;-74
2024/01/21 04:32:30;;;;;;;78.45;24.00;;;;;;;;;;7371815;19;20485;-74
2024/01/21 04:34:55;;;;;;;70.70;23.73;;;;;;;;;;7369082;19;19999;-74
2024/01/21 04:37:20;;;;;;;66.80;24.55;;;;;;;;;;7392199;19;20023;-74
2024/01/21 04:39:46;;;;;;;69.47;24.95;;;;;;;;;;7371219;19;20010;-74
2024/01/21 04:42:11;;;;;;;78.57;23.98;;;;;;;;;;7370823;19;20023;-74
2024/01/21 04:44:36;;;;;;;81.53;25.20;;;;;;;;;;7369998;19;20100;-74
2024/01/21 04:47:02;;;;;;;84.55;26.20;;;;;;;;;;7371200;19;20476;-74
2024/01/21 04:49:27;;;;;;;73.03;24.92;;;;;;;;;;7392216;19;19998;-74
2024/01/21 04:51:52;;;;;;;77.28;25.33;;;;;;;;;;7369983;19;20006;-74
2024/01/21 04:54:18;;;;;;;68.68;22.60;;;;;;;;;;7367399;19;20042;-74
2024/01/21 04:56:43;;;;;;;80.80;25.23;;;;;;;;;;7370583;19;20540;-74
2024/01/21 04:59:09;;;;;;;78.25;23.55;;;;;;;;;;7369837;19;20007;-74
2024/01/21 05:01:35;;;;;;;77.75;25.05;;;;;;;;;;7392856;19;20411;-74
2024/01/21 05:04:00;;;;;;;90.03;27.05;;;;;;;;;;7367805;19;20095;-74
2024/01/21 05:06:26;;;;;;;98.93;27.42;;;;;;;;;;7369439;19;20014;-74
2024/01/21 05:08:51;;;;;;;72.32;25.42;;;;;;;;;;7369298;19;20807;-74
2024/01/21 05:11:16;;;;;;;77.07;23.92;;;;;;;;;;7369929;19;20016;-74
2024/01/21 05:13:42;;;;;;;67.05;22.52;;;;;;;;;;7370521;19;20031;-74
2024/01/21 05:16:07;;;;;;;76.93;22.52;;;;;;;;;;7392448;19;20010;-74
2024/01/21 05:18:33;;;;;;;58.22;21.25;;;;;;;;;;7368155;19;20100;-74
2024/01/21 05:20:58;;;;;;;62.92;21.50;;;;;;;;;;7368913;19;20007;-74
2024/01/21 05:23:23;;;;;;;57.85;19.52;;;;;;;;;;7368644;19;20082;-74
2024/01/21 05:25:52;;;;;;;50.67;19.02;;;;;;;;;;7370138;19;19999;-74
2024/01/21 05:28:18;;;;;;;47.45;17.27;;;;;;;;;;7391229;19;20002;-74
2024/01/21 05:30:43;;;;;;;42.30;17.42;;;;;;;;;;7369045;19;20019;-73
2024/01/21 05:33:08;;;;;;;31.02;12.63;;;;;;;;;;7367759;19;20002;-73
2024/01/21 05:35:33;;;;;;;42.15;16.23;;;;;;;;;;7367139;19;20014;-73
2024/01/21 05:37:59;;;;;;;41.20;15.82;;;;;;;;;;7368865;19;20163;-74
2024/01/21 05:40:25;;;;;;;43.25;15.70;;;;;;;;;;7391060;19;20026;-73
2024/01/21 05:42:50;;;;;;;35.88;14.60;;;;;;;;;;7368027;19;20011;-73
2024/01/21 05:45:16;;;;;;;48.05;19.00;;;;;;;;;;7369809;19;20399;-74
2024/01/21 05:47:41;;;;;;;41.03;16.27;;;;;;;;;;7367855;19;20010;-74
2024/01/21 05:50:07;;;;;;;47.33;16.42;;;;;;;;;;7369549;19;20086;-74
2024/01/21 05:52:33;;;;;;;46.38;16.85;;;;;;;;;;7391950;19;20002;-74
2024/01/21 05:54:58;;;;;;;41.80;15.98;;;;;;;;;;7367846;19;20483;-74
2024/01/21 05:57:23;;;;;;;43.50;16.65;;;;;;;;;;7368631;19;20014;-74
2024/01/21 05:59:49;;;;;;;49.38;17.77;;;;;;;;;;7369210;19;20006;-73
2024/01/21 06:02:14;;;;;;;44.75;14.98;;;;;;;;;;7368566;19;20010;-74
2024/01/21 06:04:40;;;;;;;49.38;17.10;;;;;;;;;;7389221;19;20461;-74
2024/01/21 06:07:06;;;;;;;47.40;16.17;;;;;;;;;;7369076;19;20006;-74
2024/01/21 06:09:31;;;;;;;50.85;15.98;;;;;;;;;;7368575;19;20374;-74
2024/01/21 06:11:57;;;;;;;42.80;14.13;;;;;;;;;;7370097;19;20013;-74
2024/01/21 06:14:22;;;;;;;47.88;16.65;;;;;;;;;;7367924;19;20915;-76
2024/01/21 06:16:47;;;;;;;44.10;15.48;;;;;;;;;;7367869;19;20006;-75
2024/01/21 06:19:12;;;;;;;46.20;16.25;;;;;;;;;;7388709;19;19999;-75
2024/01/21 06:21:44;;;;;;;46.42;15.02;;;;;;;;;;7367510;19;20472;-75
2024/01/21 06:24:13;;;;;;;53.80;17.45;;;;;;;;;;7368440;19;20066;-76
2024/01/21 06:26:40;;;;;;;49.17;17.60;;;;;;;;;;7367483;19;20493;-75
2024/01/21 06:29:07;;;;;;;54.85;19.70;;;;;;;;;;7367789;19;20011;-75
2024/01/21 06:31:32;;;;;;;56.33;18.80;;;;;;;;;;7390012;19;20014;-75
2024/01/21 06:33:57;;;;;;;42.72;16.42;;;;;;;;;;7364795;19;20035;-75
2024/01/21 06:36:23;;;;;;;54.03;17.60;;;;;;;;;;7367701;19;20010;-75
2024/01/21 06:38:49;;;;;;;63.20;19.92;;;;;;;;;;7366897;19;20015;-75
2024/01/21 06:41:15;;;;;;;67.75;21.33;;;;;;;;;;7367218;19;20365;-75
2024/01/21 06:43:40;;;;;;;63.95;19.02;;;;;;;;;;7382801;19;20035;-75
2024/01/21 06:46:07;;;;;;;61.80;18.85;;;;;;;;;;7376439;19;20002;-75
2024/01/21 06:48:35;;;;;;;75.43;18.48;;;;;;;;;;7365948;19;20014;-75
2024/01/21 06:51:04;;;;;;;70.80;20.50;;;;;;;;;;7367245;19;20073;-75
2024/01/21 06:53:30;;;;;;;75.78;21.10;;;;;;;;;;7368318;19;20049;-75
2024/01/21 06:55:55;;;;;;;68.75;19.65;;;;;;;;;;7368972;19;20585;-75
2024/01/21 06:58:21;;;;;;;58.30;18.00;;;;;;;;;;7389305;19;20035;-75
2024/01/21 07:00:51;;;;;;;74.57;20.65;;;;;;;;;;7367191;19;20037;-75
2024/01/21 07:03:17;;;;;;;75.55;20.17;;;;;;;;;;7365226;19;20390;-75
2024/01/21 07:05:42;;;;;;;69.10;17.65;;;;;;;;;;7366310;19;20006;-75
2024/01/21 07:08:07;;;;;;;85.38;21.55;;;;;;;;;;7366239;19;20002;-75
2024/01/21 07:10:32;;;;;;;91.57;24.63;;;;;;;;;;7388611;19;19995;-75
2024/01/21 07:12:58;;;;;;;73.55;19.63;;;;;;;;;;7365667;19;20377;-74
2024/01/21 07:15:24;;;;;;;80.40;21.35;;;;;;;;;;7364412;19;20010;-73
2024/01/21 07:17:49;;;;;;;74.75;20.55;;;;;;;;;;7366073;19;20018;-74
2024/01/21 07:20:15;;;;;;;96.25;24.00;;;;;;;;;;7372802;19;20015;-74
2024/01/21 07:22:40;;;;;;;84.97;23.20;;;;;;;;;;7390579;19;20580;-74
2024/01/21 07:25:06;;;;;;;89.97;20.45;;;;;;;;;;7379060;19;20003;-76
2024/01/21 07:27:31;;;;;;;80.72;20.13;;;;;;;;;;7365848;19;19998;-76
2024/01/21 07:29:57;;;;;;;93.80;22.85;;;;;;;;;;7366451;19;20142;-75
2024/01/21 07:32:22;;;;;;;92.93;22.65;;;;;;;;;;7364999;19;20041;-75
2024/01/21 07:34:47;;;;;;;80.63;22.73;;;;;;;;;;7363908;19;20014;-74
2024/01/21 07:37:12;;;;;;;85.13;22.48;;;;;;;;;;7388982;19;20010;-74
2024/01/21 07:39:38;;;;;;;65.55;20.90;;;;;;;;;;7365608;19;20029;-74
2024/01/21 07:42:03;;;;;;;77.78;21.85;;;;;;;;;;7366110;19;20018;-74
2024/01/21 07:44:29;;;;;;;73.53;21.55;;;;;;;;;;7365198;19;20525;-73
2024/01/21 07:46:54;;;;;;;81.28;20.30;;;;;;;;;;7366739;19;20014;-75
2024/01/21 07:49:20;;;;;;;82.00;22.15;;;;;;;;;;7387048;19;20528;-73
2024/01/21 07:51:46;;;;;;;88.03;22.73;;;;;;;;;;7365932;19;20387;-73
2024/01/21 07:54:11;;;;;;;67.95;21.45;;;;;;;;;;7365639;19;20070;-73
2024/01/21 07:56:37;;;;;;;81.95;22.25;;;;;;;;;;7373363;19;20067;-75
2024/01/21 07:59:02;;;;;;;92.57;23.35;;;;;;;;;;7372186;19;20021;-75
2024/01/21 08:01:27;;;;;;;80.07;22.42;;;;;;;;;;7395519;19;20066;-74
2024/01/21 08:03:53;;;;;;;87.82;22.98;;;;;;;;;;7372602;19;20014;-74
2024/01/21 08:06:18;;;;;;;68.00;20.02;;;;;;;;;;7373020;19;20012;-74
2024/01/21 08:08:43;;;;;;;64.47;17.38;;;;;;;;;;7372487;19;20097;-74
2024/01/21 08:11:09;;;;;;;55.30;19.33;;;;;;;;;;7372403;19;20443;-74
2024/01/21 08:13:34;;;;;;;64.03;20.38;;;;;;;;;;7392145;19;20121;-73
2024/01/21 08:15:59;;;;;;;58.25;19.50;;;;;;;;;;7372484;19;20532;-74
2024/01/21 08:18:25;;;;;;;57.00;19.85;;;;;;;;;;7370846;19;20030;-74
2024/01/21 08:20:50;;;;;;;68.32;19.88;;;;;;;;;;7372534;19;20520;-74
2024/01/21 08:23:16;;;;;;;62.67;19.40;;;;;;;;;;7371638;19;20014;-74
2024/01/21 08:25:41;;;;;;;66.22;18.95;;;;;;;;;;7378515;19;20484;-74
2024/01/21 08:28:06;;;;;;;59.60;18.08;;;;;;;;;;7390147;19;20003;-74
2024/01/21 08:30:32;;;;;;;62.70;18.77;;;;;;;;;;7371891;19;20011;-74
2024/01/21 08:32:57;;;;;;;55.20;18.45;;;;;;;;;;7370255;19;20010;-74
2024/01/21 08:35:23;;;;;;;60.72;18.08;;;;;;;;;;7373244;19;20033;-74
2024/01/21 08:37:48;;;;;;;60.33;18.92;;;;;;;;;;7376428;19;20002;-73
2024/01/21 08:40:14;;;;;;;62.75;18.38;;;;;;;;;;7394105;19;20049;-77
2024/01/21 08:42:40;;;;;;;69.22;20.90;;;;;;;;;;7361333;19;20179;-75
2024/01/21 08:45:06;;;;;;;57.35;19.08;;;;;;;;;;7375458;19;20145;-74
2024/01/21 08:47:32;;;;;;;80.28;21.58;;;;;;;;;;7371328;19;20014;-74
2024/01/21 08:49:58;;;;;;;66.30;20.83;;;;;;;;;;7374585;19;20033;-75
2024/01/21 08:52:23;;;;;;;64.38;20.77;;;;;;;;;;7393419;19;20010;-75
2024/01/21 08:54:48;;;;;;;73.13;21.67;;;;;;;;;;7367976;19;20039;-75
2024/01/21 08:57:13;;;;;;;62.17;18.77;;;;;;;;;;7370675;19;20014;-76
2024/01/21 08:59:39;;;;;;;64.47;19.02;;;;;;;;;;7371620;19;20839;-74
2024/01/21 09:02:05;;;;;;;62.70;20.30;;;;;;;;;;7371594;19;20010;-76
2024/01/21 09:04:30;;;;;;;64.20;20.73;;;;;;;;;;7391588;19;20699;-74
2024/01/21 09:06:55;;;;;;;64.05;20.23;;;;;;;;;;7368307;19;20022;-76
2024/01/21 09:09:20;;;;;;;75.10;21.80;;;;;;;;;;7370489;19;20342;-75
2024/01/21 09:11:47;;;;;;;75.13;20.20;;;;;;;;;;7370916;19;20129;-75
2024/01/21 09:14:12;;;;;;;86.45;23.55;;;;;;;;;;7369830;19;20014;-75
2024/01/21 09:16:38;;;;;;;75.65;21.85;;;;;;;;;;7392939;19;20009;-75
2024/01/21 09:19:03;;;;;;;77.53;20.13;;;;;;;;;;7370296;19;20624;-74
2024/01/21 09:21:34;;;;;;;82.90;23.98;;;;;;;;;;7370295;19;20026;-74
2024/01/21 09:24:03;;;;;;;64.40;21.42;;;;;;;;;;7369922;19;20512;-75
2024/01/21 09:26:29;;;;;;;83.90;21.50;;;;;;;;;;7359664;19;20018;-75
2024/01/21 09:28:54;;;;;;;83.97;21.95;;;;;;;;;;7365890;19;20002;-74
2024/01/21 09:31:20;;;;;;;74.75;22.38;;;;;;;;;;7385068;19;20002;-75
2024/01/21 09:33:45;;;;;;;82.03;24.30;;;;;;;;;;7363406;19;20007;-75
2024/01/21 09:36:11;;;;;;;87.25;26.23;;;;;;;;;;7364506;19;20015;-75
2024/01/21 09:38:36;;;;;;;84.88;24.92;;;;;;;;;;7362423;19;20415;-74
2024/01/21 09:41:13;;;;;;;85.88;24.45;;;;;;;;;;7364601;19;20015;-75
2024/01/21 09:43:44;;;;;;;80.07;23.33;;;;;;;;;;7387058;19;19995;-77
2024/01/21 09:46:12;;;;;;;76.75;23.38;;;;;;;;;;7366483;19;20073;-71
2024/01/21 09:48:38;;;;;;;81.43;23.08;;;;;;;;;;7366523;19;20007;-66
2024/01/21 09:51:05;;;;;;;77.10;25.05;;;;;;;;;;7370571;19;20472;-76
2024/01/21 09:53:30;;;;;;;68.57;22.90;;;;;;;;;;7373090;19;20007;-76
2024/01/21 09:56:04;;;;;;;67.72;22.02;;;;;;;;;;7371539;19;20037;-76
2024/01/21 09:58:33;;;;;;;71.40;22.52;;;;;;;;;;7387209;19;19995;-74
2024/01/21 10:00:59;;;;;;;79.82;24.13;;;;;;;;;;7369547;19;19998;-76
2024/01/21 10:03:24;;;;;;;74.60;23.42;;;;;;;;;;7354919;19;20013;-75
2024/01/21 10:05:50;;;;;;;66.32;21.40;;;;;;;;;;7369227;19;20003;-76
2024/01/21 10:08:15;;;;;;;81.30;25.00;;;;;;;;;;7364789;19;20058;-76
2024/01/21 10:10:44;;;;;;;79.00;23.83;;;;;;;;;;7380452;19;20014;-76
2024/01/21 10:13:09;;;;;;;70.25;24.92;;;;;;;;;;7391292;19;19999;-77
2024/01/21 10:15:34;;;;;;;72.40;21.85;;;;;;;;;;7370011;19;20082;-74
2024/01/21 10:18:00;;;;;;;70.82;22.48;;;;;;;;;;7363740;19;20010;-74
2024/01/21 10:20:25;;;;;;;78.82;23.48;;;;;;;;;;7363429;19;20125;-76
2024/01/21 10:22:51;;;;;;;79.60;24.02;;;;;;;;;;7364911;19;20011;-75
2024/01/21 10:25:16;;;;;;;81.20;23.27;;;;;;;;;;7384197;19;20394;-76
2024/01/21 10:27:45;;;;;;;83.88;23.13;;;;;;;;;;7363373;19;20094;-74
2024/01/21 10:30:12;;;;;;;76.75;24.35;;;;;;;;;;7363361;19;20006;-74
2024/01/21 10:32:37;;;;;;;72.03;23.38;;;;;;;;;;7364532;19;20006;-75
2024/01/21 10:35:03;;;;;;;70.13;21.98;;;;;;;;;;7361325;19;20050;-74
2024/01/21 10:37:30;;;;;;;65.60;21.65;;;;;;;;;;7383351;19;20038;-74
2024/01/21 10:39:57;;;;;;;68.28;21.48;;;;;;;;;;7362693;19;20068;-75
2024/01/21 10:42:22;;;;;;;80.32;24.13;;;;;;;;;;7362691;19;20363;-76
2024/01/21 10:44:49;;;;;;;77.40;24.90;;;;;;;;;;7365483;19;20019;-74
2024/01/21 10:47:15;;;;;;;79.00;24.38;;;;;;;;;;7362080;19;20024;-77
2024/01/21 10:49:42;;;;;;;81.90;24.75;;;;;;;;;;7374210;19;20065;-77
2024/01/21 10:52:11;;;;;;;78.28;23.52;;;;;;;;;;7385339;19;20013;-77
2024/01/21 10:54:37;;;;;;;85.78;26.15;;;;;;;;;;7364320;19;20117;-76
2024/01/21 10:57:04;;;;;;;82.30;25.58;;;;;;;;;;7362963;19;20017;-75
2024/01/21 10:59:31;;;;;;;84.05;24.67;;;;;;;;;;7363916;19;20381;-75
2024/01/21 11:01:57;;;;;;;75.65;23.33;;;;;;;;;;7365967;19;20018;-74
2024/01/21 11:04:22;;;;;;;88.82;24.83;;;;;;;;;;7392863;19;19998;-75
2024/01/21 11:06:51;;;;;;;63.85;22.17;;;;;;;;;;7373485;19;20011;-76
2024/01/21 11:09:22;;;;;;;78.15;25.50;;;;;;;;;;7368207;19;20014;-78
2024/01/21 11:11:49;;;;;;;100.75;28.70;;;;;;;;;;7360948;19;20034;-73
2024/01/21 11:14:30;;;;;;;87.82;27.00;;;;;;;;;;7360010;19;20014;-74
2024/01/21 11:16:57;;;;;;;83.57;25.60;;;;;;;;;;7368499;19;20002;-75
2024/01/21 11:19:24;;;;;;;83.63;25.95;;;;;;;;;;7377720;19;20006;-76
2024/01/21 11:21:54;;;;;;;75.95;26.15;;;;;;;;;;7362848;19;20365;-75
2024/01/21 11:24:27;;;;;;;97.45;26.63;;;;;;;;;;7360304;19;20009;-76
2024/01/21 11:26:52;;;;;;;87.25;25.33;;;;;;;;;;7358855;19;20061;-74
2024/01/21 11:29:27;;;;;;;78.07;25.48;;;;;;;;;;7360788;19;20020;-75
2024/01/21 11:32:01;;;;;;;78.20;25.85;;;;;;;;;;7369842;19;20003;-74
2024/01/21 11:34:38;;;;;;;115.85;37.47;;;;;;;;;;7389003;19;19995;-75
2024/01/21 11:37:08;;;;;;;84.97;28.73;;;;;;;;;;7368656;19;20023;-74
2024/01/21 11:39:33;;;;;;;67.07;25.35;;;;;;;;;;7360271;19;20010;-75
2024/01/21 11:42:00;;;;;;;80.43;26.98;;;;;;;;;;7369328;19;20021;-75
2024/01/21 11:44:27;;;;;;;67.15;24.42;;;;;;;;;;7366766;19;20078;-74
2024/01/21 11:46:54;;;;;;;59.60;21.75;;;;;;;;;;7369670;19;20509;-74
2024/01/21 11:49:21;;;;;;;71.70;25.02;;;;;;;;;;7388866;19;20007;-75
2024/01/21 11:51:46;;;;;;;72.65;25.23;;;;;;;;;;7368339;19;20021;-74
2024/01/21 11:54:12;;;;;;;71.93;27.00;;;;;;;;;;7373597;19;20015;-74
2024/01/21 11:56:39;;;;;;;69.68;24.33;;;;;;;;;;7373514;19;20014;-74
2024/01/21 11:59:08;;;;;;;70.13;25.85;;;;;;;;;;7363502;19;20014;-75
2024/01/21 12:01:35;;;;;;;68.32;25.60;;;;;;;;;;7388442;19;19995;-75
2024/01/21 12:04:04;;;;;;;67.50;25.60;;;;;;;;;;7364065;19;20007;-75
2024/01/21 12:06:32;;;;;;;62.42;24.33;;;;;;;;;;7366964;19;20109;-77
2024/01/21 12:08:59;;;;;;;66.45;25.10;;;;;;;;;;7365617;19;20016;-77
2024/01/21 12:11:25;;;;;;;66.53;24.73;;;;;;;;;;7363850;19;20023;-76
2024/01/21 12:13:50;;;;;;;65.55;24.00;;;;;;;;;;7367688;19;20118;-76
2024/01/21 12:16:17;;;;;;;59.42;23.42;;;;;;;;;;7385651;19;20358;-77
2024/01/21 12:18:43;;;;;;;56.28;22.80;;;;;;;;;;7365217;19;20473;-77
2024/01/21 12:21:15;;;;;;;56.10;23.27;;;;;;;;;;7367848;19;20449;-78
2024/01/21 12:23:42;;;;;;;66.72;24.35;;;;;;;;;;7368043;19;20023;-77
2024/01/21 12:26:07;;;;;;;60.92;23.75;;;;;;;;;;7368276;19;20014;-76
2024/01/21 12:28:33;;;;;;;57.30;22.90;;;;;;;;;;7391187;19;20038;-77
2024/01/21 12:30:58;;;;;;;59.25;24.23;;;;;;;;;;7368704;19;19998;-78
2024/01/21 12:33:26;;;;;;;69.82;25.00;;;;;;;;;;7366314;19;20009;-77
2024/01/21 12:35:52;;;;;;;57.90;22.63;;;;;;;;;;7370009;19;20116;-76
2024/01/21 12:38:17;;;;;;;63.83;24.40;;;;;;;;;;7364519;19;20495;-74
2024/01/21 12:40:44;;;;;;;68.78;24.25;;;;;;;;;;7365319;19;19998;-75
2024/01/21 12:43:09;;;;;;;60.45;23.45;;;;;;;;;;7387468;19;20011;-74
2024/01/21 12:45:35;;;;;;;58.20;22.30;;;;;;;;;;7366519;19;20035;-75
2024/01/21 12:48:01;;;;;;;55.78;21.17;;;;;;;;;;7363997;19;20026;-74
2024/01/21 12:50:26;;;;;;;62.80;24.02;;;;;;;;;;7365415;19;20002;-74
2024/01/21 12:52:51;;;;;;;59.22;23.80;;;;;;;;;;7366859;19;20010;-75
2024/01/21 12:55:17;;;;;;;56.80;23.60;;;;;;;;;;7389846;19;19994;-76
2024/01/21 12:57:42;;;;;;;56.00;22.80;;;;;;;;;;7391370;19;20010;-75
2024/01/21 13:00:08;;;;;;;66.63;25.67;;;;;;;;;;7372337;19;20007;-75
2024/01/21 13:02:34;;;;;;;63.00;22.75;;;;;;;;;;7372877;19;20460;-75
2024/01/21 13:04:59;;;;;;;64.00;22.83;;;;;;;;;;7371858;19;20015;-74
2024/01/21 13:07:25;;;;;;;58.22;25.05;;;;;;;;;;7392334;19;20010;-75
2024/01/21 13:09:50;;;;;;;56.65;23.45;;;;;;;;;;7368041;19;19999;-74
2024/01/21 13:12:16;;;;;;;60.03;24.45;;;;;;;;;;7368321;19;20010;-75
2024/01/21 13:14:41;;;;;;;63.15;25.35;;;;;;;;;;7369170;19;20514;-75
2024/01/21 13:17:06;;;;;;;64.32;25.15;;;;;;;;;;7370325;19;20010;-75
2024/01/21 13:19:32;;;;;;;70.47;24.92;;;;;;;;;;7390561;19;20007;-75
2024/01/21 13:22:05;;;;;;;67.43;25.17;;;;;;;;;;7369001;19;20023;-75
2024/01/21 13:24:30;;;;;;;66.38;24.63;;;;;;;;;;7370886;19;20017;-76
2024/01/21 13:26:57;;;;;;;58.70;22.88;;;;;;;;;;7370845;19;20003;-76
2024/01/21 13:32:07;;;;;;;63.35;24.77;;;;;;;;;;7369283;19;20655;-76
2024/01/21 13:34:32;;;;;;;59.40;22.63;;;;;;;;;;7390888;19;20002;-75
2024/01/21 13:36:58;;;;;;;58.60;23.15;;;;;;;;;;7374040;19;20007;-76
2024/01/21 13:39:25;;;;;;;68.40;26.00;;;;;;;;;;7375220;19;20007;-75
2024/01/21 13:41:53;;;;;;;59.53;23.05;;;;;;;;;;7361035;19;20011;-75
2024/01/21 13:44:18;;;;;;;59.58;25.40;;;;;;;;;;7364929;19;20495;-76
2024/01/21 13:46:43;;;;;;;60.45;25.30;;;;;;;;;;7369446;19;20067;-76
2024/01/21 13:49:09;;;;;;;52.15;21.50;;;;;;;;;;7388923;19;20027;-75
2024/01/21 13:51:34;;;;;;;55.88;22.95;;;;;;;;;;7366656;19;20047;-75
2024/01/21 13:54:00;;;;;;;49.30;21.08;;;;;;;;;;7364158;19;20002;-75
2024/01/21 13:56:25;;;;;;;55.90;22.23;;;;;;;;;;7366724;19;20031;-75
2024/01/21 13:58:50;;;;;;;53.38;23.83;;;;;;;;;;7367180;19;19991;-75
2024/01/21 14:01:17;;;;;;;53.95;22.75;;;;;;;;;;7392480;19;20343;-76
2024/01/21 14:03:43;;;;;;;52.53;23.40;;;;;;;;;;7370496;19;20021;-75
2024/01/21 14:06:09;;;;;;;42.42;21.42;;;;;;;;;;7370617;19;20077;-75
2024/01/21 14:08:34;;;;;;;48.83;22.50;;;;;;;;;;7373156;19;20027;-75
2024/01/21 14:11:00;;;;;;;48.75;22.88;;;;;;;;;;7374454;19;20012;-75